createdAt,value
2018-11-28T00:00:42.037Z,4.64
2018-11-28T00:01:42.067Z,4.65
2018-11-28T00:02:42.143Z,4.64
2018-11-28T00:03:42.119Z,4.79
2018-11-28T00:04:42.148Z,4.68
2018-11-28T00:05:42.174Z,4.62
2018-11-28T00:06:42.200Z,4.62
2018-11-28T00:07:42.228Z,4.57
2018-11-28T00:08:42.255Z,4.64
2018-11-28T00:09:42.280Z,4.56
2018-11-28T00:10:42.307Z,4.64
2018-11-28T00:11:42.334Z,4.65
2018-11-28T00:12:42.361Z,4.62
2018-11-28T00:13:42.387Z,4.65
2018-11-28T00:14:42.417Z,4.57
2018-11-28T00:15:42.443Z,4.68
2018-11-28T00:16:42.471Z,4.62
2018-11-28T00:17:42.494Z,4.59
2018-11-28T00:18:42.525Z,4.65
2018-11-28T00:19:42.549Z,4.59
2018-11-28T00:20:42.574Z,4.57
2018-11-28T00:21:42.602Z,4.68
2018-11-28T00:22:42.629Z,4.64
2018-11-28T00:23:42.656Z,4.57
2018-11-28T00:24:42.681Z,4.62
2018-11-28T00:25:42.709Z,4.65
2018-11-28T00:26:42.736Z,4.67
2018-11-28T00:27:42.763Z,4.67
2018-11-28T00:28:42.789Z,4.67
2018-11-28T00:29:42.816Z,4.65
2018-11-28T00:30:42.843Z,4.59
2018-11-28T00:31:42.870Z,4.65
2018-11-28T00:32:42.903Z,4.59
2018-11-28T00:33:42.923Z,4.65
2018-11-28T00:34:42.950Z,4.56
2018-11-28T00:35:42.977Z,4.59
2018-11-28T00:36:43.003Z,4.62
2018-11-28T00:37:43.030Z,4.57
2018-11-28T00:38:43.057Z,4.56
2018-11-28T00:39:43.085Z,4.57
2018-11-28T00:40:43.112Z,4.61
2018-11-28T00:41:43.137Z,4.61
2018-11-28T00:42:43.166Z,4.61
2018-11-28T00:43:43.193Z,4.54
2018-11-28T00:44:43.217Z,4.54
2018-11-28T00:45:43.246Z,4.57
2018-11-28T00:46:43.273Z,4.64
2018-11-28T00:47:43.307Z,4.57
2018-11-28T00:48:43.325Z,4.61
2018-11-28T00:49:43.359Z,4.65
2018-11-28T00:50:43.379Z,4.62
2018-11-28T00:51:43.407Z,4.65
2018-11-28T00:52:43.432Z,4.64
2018-11-28T00:53:43.461Z,4.57
2018-11-28T00:54:43.487Z,4.56
2018-11-28T00:55:48.394Z,4.54
2018-11-28T00:56:43.538Z,4.59
2018-11-28T00:57:43.565Z,4.59
2018-11-28T00:58:43.593Z,4.62
2018-11-28T00:59:43.644Z,4.62
2018-11-28T01:00:43.645Z,4.57
2018-11-28T01:01:43.673Z,4.51
2018-11-28T01:02:43.702Z,4.67
2018-11-28T01:03:43.727Z,4.65
2018-11-28T01:04:43.752Z,4.68
2018-11-28T01:05:43.779Z,4.54
2018-11-28T01:06:43.808Z,4.59
2018-11-28T01:07:43.838Z,4.50
2018-11-28T01:08:43.860Z,4.51
2018-11-28T01:09:43.888Z,4.44
2018-11-28T01:10:43.915Z,4.44
2018-11-28T01:11:43.940Z,4.49
2018-11-28T01:12:43.971Z,4.47
2018-11-28T01:13:44.002Z,4.46
2018-11-28T01:14:44.020Z,4.44
2018-11-28T01:15:44.049Z,4.50
2018-11-28T01:16:44.202Z,4.44
2018-11-28T01:17:44.115Z,4.49
2018-11-28T01:18:44.129Z,4.38
2018-11-28T01:19:44.164Z,4.47
2018-11-28T01:20:44.183Z,4.44
2018-11-28T01:21:44.210Z,4.43
2018-11-28T01:22:44.241Z,4.46
2018-11-28T01:23:44.263Z,4.46
2018-11-28T01:24:44.288Z,4.47
2018-11-28T01:25:44.315Z,4.47
2018-11-28T01:26:44.343Z,4.39
2018-11-28T01:27:44.368Z,4.42
2018-11-28T01:28:46.504Z,4.36
2018-11-28T01:29:44.424Z,4.46
2018-11-28T01:30:44.450Z,4.39
2018-11-28T01:31:44.476Z,4.50
2018-11-28T01:32:44.501Z,4.49
2018-11-28T01:33:44.531Z,4.46
2018-11-28T01:34:44.559Z,4.47
2018-11-28T01:35:44.584Z,4.50
2018-11-28T01:36:44.609Z,4.50
2018-11-28T01:37:44.636Z,4.46
2018-11-28T01:38:44.669Z,4.49
2018-11-28T01:39:44.691Z,4.42
2018-11-28T01:40:44.718Z,4.49
2018-11-28T01:41:44.743Z,4.43
2018-11-28T01:42:44.770Z,4.50
2018-11-28T01:43:44.799Z,4.56
2018-11-28T01:44:44.823Z,4.49
2018-11-28T01:45:44.850Z,4.53
2018-11-28T01:46:44.878Z,4.51
2018-11-28T01:47:44.904Z,4.57
2018-11-28T01:48:44.933Z,4.61
2018-11-28T01:49:44.957Z,4.56
2018-11-28T01:50:44.986Z,4.59
2018-11-28T01:51:45.010Z,4.44
2018-11-28T01:52:45.039Z,4.43
2018-11-28T01:53:45.065Z,4.47
2018-11-28T01:54:45.090Z,4.46
2018-11-28T01:55:45.120Z,4.46
2018-11-28T01:56:45.144Z,4.42
2018-11-28T01:57:45.186Z,4.54
2018-11-28T01:58:45.202Z,4.57
2018-11-28T01:59:45.225Z,4.53
2018-11-28T02:00:45.251Z,4.59
2018-11-28T02:01:45.277Z,4.56
2018-11-28T02:02:45.305Z,4.57
2018-11-28T02:03:45.338Z,4.59
2018-11-28T02:04:45.358Z,4.39
2018-11-28T02:05:45.388Z,4.47
2018-11-28T02:06:45.415Z,4.44
2018-11-28T02:07:45.439Z,4.44
2018-11-28T02:08:45.463Z,4.46
2018-11-28T02:09:45.494Z,4.46
2018-11-28T02:10:45.519Z,4.44
2018-11-28T02:11:45.547Z,4.56
2018-11-28T02:12:45.572Z,4.57
2018-11-28T02:13:45.599Z,4.49
2018-11-28T02:14:45.625Z,4.51
2018-11-28T02:15:45.651Z,4.51
2018-11-28T02:16:45.677Z,4.56
2018-11-28T02:17:45.709Z,4.56
2018-11-28T02:18:45.735Z,4.49
2018-11-28T02:19:45.758Z,4.43
2018-11-28T02:20:45.785Z,4.49
2018-11-28T02:21:45.813Z,4.44
2018-11-28T02:22:45.838Z,4.47
2018-11-28T02:23:45.865Z,4.49
2018-11-28T02:24:45.894Z,4.44
2018-11-28T02:25:45.918Z,4.43
2018-11-28T02:26:45.946Z,4.50
2018-11-28T02:27:45.973Z,4.46
2018-11-28T02:28:45.999Z,4.43
2018-11-28T02:29:46.026Z,4.49
2018-11-28T02:30:46.059Z,4.43
2018-11-28T02:31:46.080Z,4.49
2018-11-28T02:32:46.113Z,4.50
2018-11-28T02:33:46.132Z,4.61
2018-11-28T02:34:46.162Z,4.54
2018-11-28T02:35:46.187Z,4.53
2018-11-28T02:36:46.214Z,4.56
2018-11-28T02:37:46.241Z,4.59
2018-11-28T02:38:46.269Z,4.61
2018-11-28T02:39:46.294Z,4.43
2018-11-28T02:40:46.320Z,4.50
2018-11-28T02:41:46.347Z,4.47
2018-11-28T02:42:46.378Z,4.46
2018-11-28T02:43:46.402Z,4.50
2018-11-28T02:44:46.430Z,4.39
2018-11-28T02:45:46.454Z,4.59
2018-11-28T02:46:46.486Z,4.59
2018-11-28T02:47:46.513Z,4.57
2018-11-28T02:48:46.538Z,4.53
2018-11-28T02:49:46.561Z,4.61
2018-11-28T02:50:46.594Z,4.57
2018-11-28T02:51:46.614Z,4.61
2018-11-28T02:52:46.642Z,4.57
2018-11-28T02:53:46.668Z,4.53
2018-11-28T02:54:46.694Z,4.61
2018-11-28T02:55:46.722Z,4.39
2018-11-28T02:56:46.747Z,4.49
2018-11-28T02:57:46.773Z,4.43
2018-11-28T02:58:46.801Z,4.38
2018-11-28T02:59:46.827Z,4.35
2018-11-28T03:00:46.856Z,4.32
2018-11-28T03:01:46.881Z,4.26
2018-11-28T03:02:46.916Z,4.29
2018-11-28T03:03:46.935Z,4.20
2018-11-28T03:04:46.961Z,4.25
2018-11-28T03:05:46.990Z,4.32
2018-11-28T03:06:47.015Z,4.26
2018-11-28T03:07:47.042Z,4.29
2018-11-28T03:08:47.068Z,4.21
2018-11-28T03:09:47.094Z,4.13
2018-11-28T03:10:47.122Z,4.11
2018-11-28T03:11:47.149Z,4.16
2018-11-28T03:12:47.181Z,4.07
2018-11-28T03:13:47.201Z,4.04
2018-11-28T03:14:47.228Z,3.99
2018-11-28T03:15:47.254Z,3.99
2018-11-28T03:16:47.280Z,4.11
2018-11-28T03:17:47.308Z,3.98
2018-11-28T03:18:47.333Z,4.11
2018-11-28T03:19:47.360Z,3.96
2018-11-28T03:20:47.387Z,3.95
2018-11-28T03:21:47.413Z,3.93
2018-11-28T03:22:47.439Z,3.96
2018-11-28T03:23:47.466Z,3.93
2018-11-28T03:24:47.493Z,4.07
2018-11-28T03:25:47.519Z,4.04
2018-11-28T03:26:47.548Z,3.99
2018-11-28T03:27:47.576Z,4.06
2018-11-28T03:28:47.598Z,3.99
2018-11-28T03:29:47.624Z,4.00
2018-11-28T03:30:47.652Z,3.98
2018-11-28T03:31:47.680Z,3.98
2018-11-28T03:32:47.705Z,3.84
2018-11-28T03:33:47.734Z,3.89
2018-11-28T03:34:47.763Z,3.93
2018-11-28T03:35:47.783Z,3.84
2018-11-28T03:36:47.817Z,3.90
2018-11-28T03:37:47.838Z,3.89
2018-11-28T03:38:47.864Z,3.84
2018-11-28T03:39:47.892Z,3.86
2018-11-28T03:40:47.915Z,3.89
2018-11-28T03:41:47.943Z,3.81
2018-11-28T03:42:47.969Z,3.84
2018-11-28T03:43:47.997Z,3.89
2018-11-28T03:44:48.021Z,3.82
2018-11-28T03:45:48.048Z,3.88
2018-11-28T03:46:48.079Z,3.88
2018-11-28T03:47:48.103Z,3.86
2018-11-28T03:48:48.130Z,3.74
2018-11-28T03:49:48.153Z,3.77
2018-11-28T03:50:48.181Z,3.70
2018-11-28T03:51:48.212Z,3.75
2018-11-28T03:52:48.235Z,3.70
2018-11-28T03:53:48.262Z,3.68
2018-11-28T03:54:48.287Z,3.70
2018-11-28T03:55:48.316Z,3.71
2018-11-28T03:56:48.339Z,3.72
2018-11-28T03:57:48.365Z,3.68
2018-11-28T03:58:48.390Z,3.71
2018-11-28T03:59:48.416Z,3.74
2018-11-28T04:00:48.444Z,3.74
2018-11-28T04:01:48.470Z,3.71
2018-11-28T04:02:48.496Z,3.60
2018-11-28T04:03:48.524Z,3.57
2018-11-28T04:04:48.549Z,3.62
2018-11-28T04:05:48.575Z,3.62
2018-11-28T04:06:48.602Z,3.62
2018-11-28T04:07:48.628Z,3.57
2018-11-28T04:08:48.653Z,3.60
2018-11-28T04:09:48.680Z,3.60
2018-11-28T04:10:48.707Z,3.62
2018-11-28T04:11:48.733Z,3.54
2018-11-28T04:12:48.759Z,3.60
2018-11-28T04:13:48.785Z,3.45
2018-11-28T04:14:48.816Z,3.49
2018-11-28T04:15:48.837Z,3.49
2018-11-28T04:16:48.863Z,3.45
2018-11-28T04:17:48.890Z,3.46
2018-11-28T04:18:48.916Z,3.52
2018-11-28T04:19:48.943Z,3.46
2018-11-28T04:20:48.968Z,3.52
2018-11-28T04:21:48.994Z,3.41
2018-11-28T04:22:49.020Z,3.31
2018-11-28T04:23:49.046Z,3.39
2018-11-28T04:24:49.073Z,3.31
2018-11-28T04:25:49.099Z,3.34
2018-11-28T04:26:49.125Z,3.44
2018-11-28T04:27:49.150Z,3.26
2018-11-28T04:28:49.179Z,3.28
2018-11-28T04:29:49.204Z,3.31
2018-11-28T04:30:49.233Z,3.35
2018-11-28T04:31:49.259Z,3.33
2018-11-28T04:32:49.287Z,3.25
2018-11-28T04:33:49.308Z,3.33
2018-11-28T04:34:49.335Z,3.28
2018-11-28T04:35:49.360Z,3.33
2018-11-28T04:36:49.386Z,3.19
2018-11-28T04:37:49.412Z,3.26
2018-11-28T04:38:49.440Z,3.20
2018-11-28T04:39:49.468Z,3.28
2018-11-28T04:40:49.491Z,3.23
2018-11-28T04:41:49.516Z,3.17
2018-11-28T04:42:49.545Z,3.17
2018-11-28T04:43:49.570Z,3.26
2018-11-28T04:44:49.595Z,3.17
2018-11-28T04:45:49.623Z,3.15
2018-11-28T04:46:49.648Z,3.13
2018-11-28T04:47:49.674Z,3.13
2018-11-28T04:48:49.706Z,3.19
2018-11-28T04:49:49.726Z,3.12
2018-11-28T04:50:49.751Z,3.12
2018-11-28T04:51:49.777Z,3.05
2018-11-28T04:52:49.808Z,3.13
2018-11-28T04:53:49.828Z,3.08
2018-11-28T04:54:49.854Z,3.15
2018-11-28T04:55:49.884Z,3.13
2018-11-28T04:56:49.906Z,3.05
2018-11-28T04:57:49.934Z,3.04
2018-11-28T04:58:49.958Z,3.07
2018-11-28T04:59:49.984Z,2.92
2018-11-28T05:00:50.010Z,2.99
2018-11-28T05:01:50.043Z,2.94
2018-11-28T05:02:50.062Z,2.98
2018-11-28T05:03:50.090Z,2.97
2018-11-28T05:04:50.113Z,2.89
2018-11-28T05:05:50.139Z,3.01
2018-11-28T05:06:50.165Z,2.99
2018-11-28T05:07:50.194Z,2.97
2018-11-28T05:08:50.216Z,3.01
2018-11-28T05:09:50.242Z,3.01
2018-11-28T05:10:50.269Z,2.92
2018-11-28T05:11:50.295Z,2.95
2018-11-28T05:12:50.326Z,2.92
2018-11-28T05:13:50.346Z,2.89
2018-11-28T05:14:50.371Z,2.92
2018-11-28T05:15:50.398Z,2.83
2018-11-28T05:16:50.423Z,2.81
2018-11-28T05:17:50.449Z,2.86
2018-11-28T05:18:50.479Z,2.80
2018-11-28T05:19:50.503Z,2.87
2018-11-28T05:20:50.528Z,2.87
2018-11-28T05:21:50.553Z,2.86
2018-11-28T05:22:50.580Z,2.80
2018-11-28T05:23:50.607Z,2.83
2018-11-28T05:24:50.633Z,2.80
2018-11-28T05:25:50.658Z,2.79
2018-11-28T05:26:50.681Z,2.83
2018-11-28T05:27:50.710Z,2.79
2018-11-28T05:28:50.732Z,2.80
2018-11-28T05:29:50.758Z,2.76
2018-11-28T05:30:50.789Z,2.80
2018-11-28T05:31:50.811Z,2.69
2018-11-28T05:32:50.844Z,2.76
2018-11-28T05:33:50.861Z,2.76
2018-11-28T05:34:50.887Z,2.65
2018-11-28T05:35:50.914Z,2.80
2018-11-28T05:36:50.938Z,2.74
2018-11-28T05:37:50.965Z,2.77
2018-11-28T05:38:50.993Z,2.69
2018-11-28T05:39:51.015Z,2.77
2018-11-28T05:40:51.040Z,2.71
2018-11-28T05:41:51.067Z,2.65
2018-11-28T05:42:51.093Z,2.71
2018-11-28T05:43:51.119Z,2.66
2018-11-28T05:44:51.146Z,2.74
2018-11-28T05:45:51.171Z,2.68
2018-11-28T05:46:51.195Z,2.65
2018-11-28T05:47:51.235Z,2.63
2018-11-28T05:48:51.250Z,2.65
2018-11-28T05:49:51.273Z,2.71
2018-11-28T05:50:51.298Z,2.69
2018-11-28T05:51:51.340Z,2.68
2018-11-28T05:52:51.352Z,2.65
2018-11-28T05:53:51.374Z,2.66
2018-11-28T05:54:51.400Z,2.59
2018-11-28T05:55:51.426Z,2.61
2018-11-28T05:56:51.451Z,2.51
2018-11-28T05:57:51.477Z,2.61
2018-11-28T05:58:51.505Z,2.48
2018-11-28T05:59:51.527Z,2.50
2018-11-28T06:00:51.553Z,2.50
2018-11-28T06:01:51.578Z,2.50
2018-11-28T06:02:51.606Z,2.43
2018-11-28T06:03:51.636Z,2.51
2018-11-28T06:04:51.655Z,2.44
2018-11-28T06:05:51.682Z,2.50
2018-11-28T06:06:51.707Z,2.50
2018-11-28T06:07:51.732Z,2.51
2018-11-28T06:08:51.756Z,2.56
2018-11-28T06:09:51.782Z,2.53
2018-11-28T06:10:51.808Z,2.51
2018-11-28T06:11:51.834Z,2.50
2018-11-28T06:12:51.861Z,2.50
2018-11-28T06:13:51.885Z,2.58
2018-11-28T06:14:51.910Z,2.55
2018-11-28T06:15:51.936Z,2.50
2018-11-28T06:16:51.960Z,2.53
2018-11-28T06:17:51.988Z,2.50
2018-11-28T06:18:52.012Z,2.51
2018-11-28T06:19:52.040Z,2.53
2018-11-28T06:20:52.063Z,2.51
2018-11-28T06:21:52.094Z,2.55
2018-11-28T06:22:52.116Z,2.51
2018-11-28T06:23:52.139Z,2.50
2018-11-28T06:24:52.165Z,2.47
2018-11-28T06:25:52.190Z,2.41
2018-11-28T06:26:52.216Z,2.45
2018-11-28T06:27:52.240Z,2.47
2018-11-28T06:28:52.267Z,2.40
2018-11-28T06:29:52.294Z,2.47
2018-11-28T06:30:52.316Z,2.44
2018-11-28T06:31:52.347Z,2.44
2018-11-28T06:32:52.368Z,2.30
2018-11-28T06:33:52.396Z,2.43
2018-11-28T06:34:52.421Z,2.33
2018-11-28T06:35:52.445Z,2.40
2018-11-28T06:36:52.473Z,2.37
2018-11-28T06:37:52.494Z,2.41
2018-11-28T06:38:52.520Z,2.36
2018-11-28T06:39:52.546Z,2.29
2018-11-28T06:40:52.572Z,2.30
2018-11-28T06:41:52.597Z,2.38
2018-11-28T06:42:52.622Z,2.33
2018-11-28T06:43:52.646Z,2.29
2018-11-28T06:44:52.671Z,2.27
2018-11-28T06:45:52.696Z,2.26
2018-11-28T06:46:52.724Z,2.32
2018-11-28T06:47:52.751Z,2.33
2018-11-28T06:48:52.775Z,2.27
2018-11-28T06:49:52.841Z,2.30
2018-11-28T06:50:52.827Z,2.32
2018-11-28T06:51:52.856Z,2.27
2018-11-28T06:52:52.876Z,2.33
2018-11-28T06:53:52.974Z,2.30
2018-11-28T06:54:52.926Z,2.40
2018-11-28T06:55:52.950Z,2.27
2018-11-28T06:56:52.975Z,2.36
2018-11-28T06:57:53.008Z,2.30
2018-11-28T06:58:53.027Z,2.26
2018-11-28T06:59:53.051Z,2.33
2018-11-28T07:00:53.076Z,2.36
2018-11-28T07:01:53.102Z,2.30
2018-11-28T07:02:53.139Z,2.33
2018-11-28T07:03:53.156Z,2.29
2018-11-28T07:04:53.178Z,2.30
2018-11-28T07:05:53.203Z,2.32
2018-11-28T07:06:53.228Z,2.29
2018-11-28T07:07:53.256Z,2.30
2018-11-28T07:08:53.285Z,2.45
2018-11-28T07:09:53.304Z,2.45
2018-11-28T07:10:53.329Z,2.38
2018-11-28T07:11:53.357Z,2.38
2018-11-28T07:12:53.381Z,2.44
2018-11-28T07:13:53.405Z,2.26
2018-11-28T07:14:53.431Z,2.29
2018-11-28T07:15:53.458Z,2.37
2018-11-28T07:16:53.481Z,2.36
2018-11-28T07:17:53.518Z,2.41
2018-11-28T07:18:53.531Z,2.41
2018-11-28T07:19:53.557Z,2.38
2018-11-28T07:20:53.619Z,2.40
2018-11-28T07:21:53.608Z,2.33
2018-11-28T07:22:53.632Z,2.33
2018-11-28T07:23:53.658Z,2.45
2018-11-28T07:24:53.684Z,2.41
2018-11-28T07:25:53.708Z,2.44
2018-11-28T07:26:53.733Z,2.50
2018-11-28T07:27:53.759Z,2.50
2018-11-28T07:28:53.786Z,2.44
2018-11-28T07:29:53.809Z,2.48
2018-11-28T07:30:53.837Z,2.51
2018-11-28T07:31:53.861Z,2.53
2018-11-28T07:32:53.886Z,2.53
2018-11-28T07:33:53.918Z,2.48
2018-11-28T07:34:53.935Z,2.59
2018-11-28T07:35:53.962Z,2.51
2018-11-28T07:36:53.986Z,2.53
2018-11-28T07:37:54.015Z,2.53
2018-11-28T07:38:54.226Z,2.53
2018-11-28T07:39:54.062Z,2.50
2018-11-28T07:40:54.087Z,2.55
2018-11-28T07:41:54.117Z,2.53
2018-11-28T07:42:54.144Z,2.58
2018-11-28T07:43:54.165Z,2.65
2018-11-28T07:44:54.192Z,2.68
2018-11-28T07:45:54.213Z,2.68
2018-11-28T07:46:54.240Z,2.65
2018-11-28T07:47:54.266Z,2.77
2018-11-28T07:48:54.350Z,2.66
2018-11-28T07:49:54.315Z,2.69
2018-11-28T07:50:54.341Z,2.63
2018-11-28T07:51:54.367Z,2.65
2018-11-28T07:52:54.396Z,2.65
2018-11-28T07:53:54.419Z,2.73
2018-11-28T07:54:54.442Z,2.63
2018-11-28T07:55:54.469Z,2.63
2018-11-28T07:56:54.495Z,2.63
2018-11-28T07:57:54.517Z,2.79
2018-11-28T07:58:54.544Z,2.69
2018-11-28T07:59:54.573Z,2.71
2018-11-28T08:00:54.594Z,2.73
2018-11-28T08:01:54.619Z,2.71
2018-11-28T08:02:54.646Z,2.73
2018-11-28T08:03:54.670Z,2.71
2018-11-28T08:04:54.699Z,2.71
2018-11-28T08:05:54.731Z,2.69
2018-11-28T08:06:54.747Z,2.73
2018-11-28T08:07:54.773Z,2.76
2018-11-28T08:08:54.796Z,2.73
2018-11-28T08:09:54.855Z,2.68
2018-11-28T08:10:54.849Z,2.73
2018-11-28T08:11:54.898Z,2.77
2018-11-28T08:12:54.907Z,2.81
2018-11-28T08:13:54.925Z,2.86
2018-11-28T08:14:54.949Z,2.84
2018-11-28T08:15:54.989Z,2.83
2018-11-28T08:16:55.003Z,2.87
2018-11-28T08:17:55.026Z,2.90
2018-11-28T08:18:55.053Z,2.86
2018-11-28T08:19:55.130Z,2.80
2018-11-28T08:20:55.103Z,2.86
2018-11-28T08:21:55.129Z,2.87
2018-11-28T08:22:55.155Z,2.90
2018-11-28T08:23:55.183Z,2.84
2018-11-28T08:24:55.206Z,2.97
2018-11-28T08:25:55.259Z,2.92
2018-11-28T08:26:55.255Z,2.98
2018-11-28T08:27:55.280Z,3.01
2018-11-28T08:28:55.308Z,2.99
2018-11-28T08:29:55.332Z,3.05
2018-11-28T08:30:55.357Z,2.97
2018-11-28T08:31:55.384Z,3.08
2018-11-28T08:32:55.409Z,3.01
2018-11-28T08:33:55.435Z,2.99
2018-11-28T08:34:55.463Z,3.07
2018-11-28T08:35:55.486Z,3.07
2018-11-28T08:36:55.509Z,3.05
2018-11-28T08:37:55.535Z,3.08
2018-11-28T08:38:55.562Z,3.07
2018-11-28T08:39:55.587Z,3.08
2018-11-28T08:40:55.614Z,3.08
2018-11-28T08:41:55.639Z,3.10
2018-11-28T08:42:55.665Z,3.16
2018-11-28T08:43:55.692Z,3.23
2018-11-28T08:44:55.753Z,3.23
2018-11-28T08:45:55.743Z,3.31
2018-11-28T08:46:55.770Z,3.25
2018-11-28T08:47:55.792Z,3.41
2018-11-28T08:48:55.818Z,3.35
2018-11-28T08:49:55.845Z,3.31
2018-11-28T08:50:55.871Z,3.37
2018-11-28T08:51:55.895Z,3.45
2018-11-28T08:52:55.920Z,3.50
2018-11-28T08:53:55.949Z,3.46
2018-11-28T08:54:55.972Z,3.52
2018-11-28T08:55:55.998Z,3.56
2018-11-28T08:56:56.024Z,3.60
2018-11-28T08:57:56.050Z,3.67
2018-11-28T08:58:56.114Z,3.63
2018-11-28T08:59:56.102Z,3.68
2018-11-28T09:00:56.129Z,3.68
2018-11-28T09:01:56.155Z,3.84
2018-11-28T09:02:56.181Z,3.82
2018-11-28T09:03:56.205Z,3.84
2018-11-28T09:04:56.230Z,3.90
2018-11-28T09:05:56.255Z,3.86
2018-11-28T09:06:56.283Z,3.90
2018-11-28T09:07:56.309Z,3.99
2018-11-28T09:08:56.332Z,3.99
2018-11-28T09:09:56.359Z,3.96
2018-11-28T09:10:56.385Z,4.02
2018-11-28T09:11:56.413Z,4.06
2018-11-28T09:12:56.437Z,4.24
2018-11-28T09:13:56.464Z,4.18
2018-11-28T09:14:56.491Z,4.36
2018-11-28T09:15:56.520Z,4.34
2018-11-28T09:16:56.543Z,4.50
2018-11-28T09:17:56.570Z,4.50
2018-11-28T09:18:56.595Z,4.56
2018-11-28T09:19:56.620Z,4.57
2018-11-28T09:20:56.660Z,4.61
2018-11-28T09:21:56.674Z,4.68
2018-11-28T09:22:56.700Z,4.77
2018-11-28T09:23:56.725Z,4.75
2018-11-28T09:24:56.752Z,4.79
2018-11-28T09:25:56.779Z,4.84
2018-11-28T09:26:56.807Z,4.99
2018-11-28T09:27:56.832Z,5.05
2018-11-28T09:28:56.861Z,5.12
2018-11-28T09:29:56.884Z,5.32
2018-11-28T09:30:56.912Z,5.24
2018-11-28T09:31:56.939Z,5.35
2018-11-28T09:32:56.966Z,5.41
2018-11-28T09:33:56.995Z,5.51
2018-11-28T09:34:57.019Z,5.55
2018-11-28T09:35:57.047Z,5.65
2018-11-28T09:36:57.081Z,5.74
2018-11-28T09:37:57.100Z,5.73
2018-11-28T09:38:57.128Z,5.81
2018-11-28T09:39:57.154Z,5.90
2018-11-28T09:40:57.184Z,6.03
2018-11-28T09:41:57.211Z,6.01
2018-11-28T09:42:57.242Z,6.06
2018-11-28T09:43:57.270Z,6.25
2018-11-28T09:44:57.296Z,6.24
2018-11-28T09:45:57.325Z,6.42
2018-11-28T09:46:57.356Z,6.60
2018-11-28T09:47:57.385Z,6.72
2018-11-28T09:48:57.415Z,6.97
2018-11-28T09:49:57.446Z,6.99
2018-11-28T09:50:57.476Z,6.99
2018-11-28T09:51:57.508Z,7.24
2018-11-28T09:52:57.537Z,7.26
2018-11-28T09:53:57.574Z,7.45
2018-11-28T09:54:57.602Z,7.62
2018-11-28T09:55:57.635Z,7.84
2018-11-28T09:56:57.673Z,8.32
2018-11-28T09:57:57.745Z,8.89
2018-11-28T09:58:57.734Z,9.31
2018-11-28T09:59:57.769Z,10.09
2018-11-28T10:00:57.802Z,11.24
2018-11-28T10:01:57.837Z,12.67
2018-11-28T10:02:57.871Z,14.20
2018-11-28T10:03:57.905Z,15.68
2018-11-28T10:05:02.728Z,17.07
2018-11-28T10:05:57.975Z,18.19
2018-11-28T10:06:58.012Z,19.35
2018-11-28T10:07:58.046Z,19.92
2018-11-28T10:08:58.082Z,20.61
2018-11-28T10:09:58.120Z,21.33
2018-11-28T10:10:58.155Z,21.93
2018-11-28T10:11:58.191Z,22.61
2018-11-28T10:12:58.229Z,23.23
2018-11-28T10:13:58.266Z,23.84
2018-11-28T10:14:58.301Z,24.18
2018-11-28T10:15:58.339Z,24.61
2018-11-28T10:16:58.376Z,24.97
2018-11-28T10:17:58.414Z,25.60
2018-11-28T10:18:58.452Z,25.98
2018-11-28T10:19:58.490Z,26.32
2018-11-28T10:20:58.565Z,26.49
2018-11-28T10:21:58.564Z,26.94
2018-11-28T10:22:58.606Z,27.18
2018-11-28T10:23:58.642Z,27.35
2018-11-28T10:24:58.680Z,27.25
2018-11-28T10:25:58.721Z,27.43
2018-11-28T10:26:58.759Z,27.08
2018-11-28T10:27:58.802Z,27.33
2018-11-28T10:28:58.835Z,27.48
2018-11-28T10:29:58.873Z,27.71
2018-11-28T10:30:58.913Z,27.96
2018-11-28T10:31:58.952Z,28.15
2018-11-28T10:32:58.989Z,28.43
2018-11-28T10:33:59.028Z,28.61
2018-11-28T10:34:59.067Z,28.80
2018-11-28T10:35:59.105Z,29.08
2018-11-28T10:36:59.143Z,29.36
2018-11-28T10:37:59.182Z,29.60
2018-11-28T10:38:59.220Z,29.52
2018-11-28T10:39:59.258Z,29.81
2018-11-28T10:40:59.298Z,29.85
2018-11-28T10:41:59.335Z,30.06
2018-11-28T10:42:59.374Z,30.23
2018-11-28T10:43:59.411Z,30.28
2018-11-28T10:44:59.448Z,30.45
2018-11-28T10:45:59.490Z,30.61
2018-11-28T10:46:59.526Z,30.90
2018-11-28T10:47:59.565Z,31.16
2018-11-28T10:48:59.603Z,31.18
2018-11-28T10:49:59.643Z,31.30
2018-11-28T10:50:59.680Z,31.13
2018-11-28T10:52:00.387Z,30.93
2018-11-28T10:52:59.759Z,30.88
2018-11-28T10:53:59.795Z,30.88
2018-11-28T10:54:59.838Z,30.70
2018-11-28T10:55:59.874Z,30.83
2018-11-28T10:56:59.909Z,30.90
2018-11-28T10:57:59.948Z,30.56
2018-11-28T10:58:59.988Z,29.89
2018-11-28T11:00:00.024Z,29.29
2018-11-28T11:01:00.061Z,28.95
2018-11-28T11:02:00.108Z,28.77
2018-11-28T11:03:00.138Z,29.05
2018-11-28T11:04:00.179Z,28.92
2018-11-28T11:05:00.214Z,28.83
2018-11-28T11:06:00.253Z,28.17
2018-11-28T11:07:00.291Z,27.77
2018-11-28T11:08:00.331Z,27.34
2018-11-28T11:09:00.369Z,26.88
2018-11-28T11:10:00.407Z,26.69
2018-11-28T11:11:00.451Z,26.47
2018-11-28T11:12:00.488Z,26.46
2018-11-28T11:13:00.525Z,26.66
2018-11-28T11:14:00.560Z,27.03
2018-11-28T11:15:00.602Z,26.98
2018-11-28T11:16:00.639Z,26.56
2018-11-28T11:17:00.677Z,25.72
2018-11-28T11:18:02.234Z,25.34
2018-11-28T11:19:00.754Z,25.29
2018-11-28T11:20:00.791Z,24.90
2018-11-28T11:21:00.829Z,24.39
2018-11-28T11:22:00.931Z,24.21
2018-11-28T11:23:00.911Z,24.04
2018-11-28T11:24:00.943Z,23.81
2018-11-28T11:25:00.979Z,23.47
2018-11-28T11:26:01.021Z,23.72
2018-11-28T11:27:01.056Z,23.99
2018-11-28T11:28:01.093Z,24.08
2018-11-28T11:29:01.144Z,24.29
2018-11-28T11:30:01.166Z,24.84
2018-11-28T11:31:01.203Z,25.46
2018-11-28T11:32:01.239Z,26.20
2018-11-28T11:33:01.274Z,26.93
2018-11-28T11:34:01.311Z,27.48
2018-11-28T11:35:01.349Z,28.06
2018-11-28T11:36:01.418Z,28.70
2018-11-28T11:37:01.421Z,29.17
2018-11-28T11:38:01.459Z,29.47
2018-11-28T11:39:01.493Z,29.67
2018-11-28T11:40:01.531Z,29.82
2018-11-28T11:41:01.565Z,30.00
2018-11-28T11:42:01.601Z,30.11
2018-11-28T11:43:01.637Z,30.15
2018-11-28T11:44:01.677Z,29.76
2018-11-28T11:45:01.720Z,29.36
2018-11-28T11:46:01.758Z,29.14
2018-11-28T11:47:01.788Z,28.88
2018-11-28T11:48:01.821Z,28.65
2018-11-28T11:49:01.887Z,28.40
2018-11-28T11:50:01.896Z,28.05
2018-11-28T11:51:01.933Z,28.11
2018-11-28T11:52:01.978Z,28.25
2018-11-28T11:53:02.004Z,28.45
2018-11-28T11:54:02.042Z,28.40
2018-11-28T11:55:02.080Z,28.38
2018-11-28T11:56:02.119Z,28.32
2018-11-28T11:57:02.158Z,28.20
2018-11-28T11:58:02.192Z,28.03
2018-11-28T11:59:02.231Z,27.81
2018-11-28T12:00:02.275Z,27.52
2018-11-28T12:01:02.307Z,27.24
2018-11-28T12:02:02.345Z,26.69
2018-11-28T12:03:02.383Z,25.91
2018-11-28T12:04:02.421Z,25.83
2018-11-28T12:05:02.459Z,25.61
2018-11-28T12:06:02.497Z,25.64
2018-11-28T12:07:02.535Z,25.60
2018-11-28T12:08:02.597Z,25.54
2018-11-28T12:09:02.637Z,25.49
2018-11-28T12:10:08.728Z,25.69
2018-11-28T12:11:02.690Z,26.09
2018-11-28T12:12:02.726Z,26.19
2018-11-28T12:13:02.767Z,26.31
2018-11-28T12:14:02.803Z,26.44
2018-11-28T12:15:02.846Z,26.23
2018-11-28T12:16:02.909Z,26.17
2018-11-28T12:17:02.921Z,26.42
2018-11-28T12:18:02.959Z,26.56
2018-11-28T12:19:02.998Z,26.97
2018-11-28T12:20:03.037Z,27.59
2018-11-28T12:21:03.076Z,28.15
2018-11-28T12:22:03.119Z,28.58
2018-11-28T12:23:03.154Z,28.27
2018-11-28T12:24:03.193Z,27.95
2018-11-28T12:25:03.231Z,28.20
2018-11-28T12:26:03.271Z,28.43
2018-11-28T12:27:03.309Z,28.58
2018-11-28T12:28:03.347Z,28.87
2018-11-28T12:29:03.387Z,29.39
2018-11-28T12:30:03.428Z,29.79
2018-11-28T12:31:03.466Z,30.23
2018-11-28T12:32:03.504Z,30.57
2018-11-28T12:33:03.539Z,31.04
2018-11-28T12:34:03.580Z,31.10
2018-11-28T12:35:03.618Z,31.16
2018-11-28T12:36:03.656Z,31.45
2018-11-28T12:37:03.694Z,31.50
2018-11-28T12:38:03.733Z,31.13
2018-11-28T12:39:03.772Z,30.72
2018-11-28T12:40:03.810Z,30.49
2018-11-28T12:41:03.847Z,30.51
2018-11-28T12:42:03.886Z,30.30
2018-11-28T12:43:03.925Z,29.54
2018-11-28T12:44:03.985Z,28.32
2018-11-28T12:45:04.003Z,27.62
2018-11-28T12:46:04.041Z,26.64
2018-11-28T12:47:04.079Z,25.29
2018-11-28T12:48:04.114Z,24.46
2018-11-28T12:49:04.152Z,23.68
2018-11-28T12:50:04.190Z,22.84
2018-11-28T12:51:04.231Z,22.24
2018-11-28T12:52:04.265Z,21.98
2018-11-28T12:53:04.302Z,21.90
2018-11-28T12:54:04.347Z,21.86
2018-11-28T12:55:04.378Z,21.91
2018-11-28T12:56:04.417Z,21.94
2018-11-28T12:57:04.459Z,22.01
2018-11-28T12:58:04.493Z,21.93
2018-11-28T12:59:04.530Z,21.90
2018-11-28T13:00:04.569Z,21.99
2018-11-28T13:01:04.604Z,22.01
2018-11-28T13:02:04.643Z,21.46
2018-11-28T13:03:04.679Z,21.16
2018-11-28T13:04:04.718Z,20.83
2018-11-28T13:05:04.755Z,20.41
2018-11-28T13:06:04.795Z,20.13
2018-11-28T13:07:04.830Z,19.85
2018-11-28T13:08:04.867Z,19.53
2018-11-28T13:09:04.910Z,19.20
2018-11-28T13:10:04.941Z,18.84
2018-11-28T13:11:04.980Z,18.25
2018-11-28T13:12:05.015Z,17.96
2018-11-28T13:13:05.052Z,17.58